Time;durP1;ratioP1;P1;durP2;ratioP2;P2;SDS_P1;SDS_P2;PMS_P1;PMS_P2;Temp;Humidity;BMP_temperature;BMP_pressure;BME280_temperature;BME280_humidity;BME280_pressure;Samples;Min_cycle;Max_cycle;Signal;HPM_P1;HPM_P2
2020/12/03 00:01:41;;;;;;;13.17;10.43;;;;;;;;;;5096453;28;20462;-57
2020/12/03 00:04:07;;;;;;;14.27;11.17;;;;;;;;;;5085838;28;20199;-56
2020/12/03 00:06:36;;;;;;;14.90;11.43;;;;;;;;;;5074879;28;20438;-56
2020/12/03 00:09:06;;;;;;;14.17;11.53;;;;;;;;;;5073944;28;20275;-56
2020/12/03 00:11:34;;;;;;;14.90;11.33;;;;;;;;;;5073199;28;20438;-56
2020/12/03 00:14:00;;;;;;;14.57;11.87;;;;;;;;;;5077410;28;20855;-56
2020/12/03 00:16:30;;;;;;;14.80;11.00;;;;;;;;;;5072472;28;20464;-56
2020/12/03 00:18:56;;;;;;;14.10;10.60;;;;;;;;;;5086035;28;20306;-56
2020/12/03 00:21:33;;;;;;;14.20;11.00;;;;;;;;;;5073851;28;20440;-56
2020/12/03 00:23:59;;;;;;;13.40;10.87;;;;;;;;;;5082615;28;20297;-58
2020/12/03 00:26:26;;;;;;;13.87;11.03;;;;;;;;;;5076185;28;20967;-57
2020/12/03 00:28:52;;;;;;;15.20;11.93;;;;;;;;;;5076784;28;20185;-56
2020/12/03 00:31:18;;;;;;;13.83;10.60;;;;;;;;;;5088014;28;20433;-56
2020/12/03 00:33:44;;;;;;;14.00;10.60;;;;;;;;;;5086663;28;20180;-57
2020/12/03 00:36:10;;;;;;;17.03;11.87;;;;;;;;;;5074453;28;20628;-57
2020/12/03 00:38:36;;;;;;;13.93;10.80;;;;;;;;;;5079274;28;20434;-58
2020/12/03 00:41:03;;;;;;;16.00;12.13;;;;;;;;;;5076367;28;20185;-56
2020/12/03 00:43:29;;;;;;;14.77;11.27;;;;;;;;;;5078983;28;20210;-56
2020/12/03 00:45:55;;;;;;;15.13;11.50;;;;;;;;;;5077376;28;20410;-56
2020/12/03 00:48:21;;;;;;;14.07;10.97;;;;;;;;;;5084820;28;21317;-56
2020/12/03 00:50:47;;;;;;;16.33;12.30;;;;;;;;;;5071769;28;20647;-57
2020/12/03 00:53:13;;;;;;;13.63;10.57;;;;;;;;;;5074200;28;20438;-56
2020/12/03 00:55:39;;;;;;;14.57;11.53;;;;;;;;;;5080539;28;20439;-56
2020/12/03 00:58:06;;;;;;;12.97;10.07;;;;;;;;;;5073444;28;20859;-57
2020/12/03 01:00:32;;;;;;;13.77;10.73;;;;;;;;;;5080120;28;20478;-58
2020/12/03 01:02:58;;;;;;;14.83;11.87;;;;;;;;;;5070971;28;20809;-56
2020/12/03 01:05:24;;;;;;;15.70;11.00;;;;;;;;;;5083192;28;20649;-56
2020/12/03 01:07:50;;;;;;;13.50;10.07;;;;;;;;;;5073271;28;20430;-56
2020/12/03 01:10:19;;;;;;;14.50;11.43;;;;;;;;;;5077704;28;20437;-56
2020/12/03 01:12:45;;;;;;;15.57;11.47;;;;;;;;;;5075247;28;20215;-57
2020/12/03 01:15:11;;;;;;;13.70;10.47;;;;;;;;;;5079329;28;20444;-58
2020/12/03 01:17:37;;;;;;;13.30;11.03;;;;;;;;;;5078751;28;20779;-56
2020/12/03 01:20:06;;;;;;;16.17;10.93;;;;;;;;;;5083476;28;20425;-56
2020/12/03 01:22:32;;;;;;;13.73;11.57;;;;;;;;;;5073418;28;20859;-56
2020/12/03 01:24:58;;;;;;;12.93;10.70;;;;;;;;;;5078745;28;20430;-56
2020/12/03 01:27:24;;;;;;;15.33;11.50;;;;;;;;;;5076952;28;20630;-57
2020/12/03 01:29:50;;;;;;;14.97;10.83;;;;;;;;;;5072770;28;20477;-56
2020/12/03 01:32:16;;;;;;;14.30;11.63;;;;;;;;;;5084969;28;20187;-56
2020/12/03 01:34:42;;;;;;;15.80;11.23;;;;;;;;;;5079782;28;20219;-57
2020/12/03 01:37:08;;;;;;;15.30;11.07;;;;;;;;;;5071462;28;20181;-57
2020/12/03 01:39:34;;;;;;;14.33;11.03;;;;;;;;;;5072348;28;20226;-57
2020/12/03 01:42:00;;;;;;;15.17;11.93;;;;;;;;;;5081735;28;20962;-56
2020/12/03 01:44:44;;;;;;;16.80;11.60;;;;;;;;;;5080519;28;20579;-56
2020/12/03 01:47:16;;;;;;;12.10;10.50;;;;;;;;;;5073171;28;20403;-56
2020/12/03 01:49:42;;;;;;;13.97;10.60;;;;;;;;;;5092670;28;20401;-57
2020/12/03 01:52:08;;;;;;;16.07;11.37;;;;;;;;;;5083606;28;20486;-56
2020/12/03 01:54:34;;;;;;;14.93;11.27;;;;;;;;;;5079954;28;20430;-58
2020/12/03 01:57:06;;;;;;;13.50;10.77;;;;;;;;;;5080390;28;20436;-57
2020/12/03 01:59:38;;;;;;;13.77;10.67;;;;;;;;;;5078301;28;20192;-58
2020/12/03 02:02:05;;;;;;;12.97;10.27;;;;;;;;;;5074727;28;20872;-56
2020/12/03 02:04:31;;;;;;;13.93;10.73;;;;;;;;;;5075132;28;20454;-57
2020/12/03 02:07:01;;;;;;;16.03;11.00;;;;;;;;;;5078526;28;20445;-55
2020/12/03 02:09:27;;;;;;;16.67;11.07;;;;;;;;;;5076061;28;20181;-56
2020/12/03 02:11:53;;;;;;;15.77;11.80;;;;;;;;;;5082351;28;21505;-57
2020/12/03 02:14:19;;;;;;;15.63;10.73;;;;;;;;;;5077634;28;20433;-56
2020/12/03 02:16:45;;;;;;;13.07;10.83;;;;;;;;;;5074399;28;20415;-56
2020/12/03 02:19:23;;;;;;;13.10;10.63;;;;;;;;;;5072748;28;20458;-56
2020/12/03 02:22:02;;;;;;;13.93;10.93;;;;;;;;;;5078619;28;20421;-56
2020/12/03 02:24:29;;;;;;;13.67;11.20;;;;;;;;;;5079981;28;20501;-57
2020/12/03 02:26:55;;;;;;;14.47;10.77;;;;;;;;;;5079842;28;20462;-56
2020/12/03 02:29:22;;;;;;;12.40;10.03;;;;;;;;;;5079723;28;20458;-56
2020/12/03 02:31:48;;;;;;;13.47;11.43;;;;;;;;;;5073499;28;20223;-58
2020/12/03 02:34:14;;;;;;;16.20;11.47;;;;;;;;;;5079482;28;20445;-56
2020/12/03 02:36:40;;;;;;;13.83;10.87;;;;;;;;;;5086164;28;20458;-56
2020/12/03 02:39:07;;;;;;;13.07;10.27;;;;;;;;;;5081056;28;20461;-59
2020/12/03 02:41:34;;;;;;;14.17;10.73;;;;;;;;;;5081143;28;20183;-58
2020/12/03 02:44:00;;;;;;;12.90;10.63;;;;;;;;;;5082422;28;20453;-56
2020/12/03 02:46:26;;;;;;;13.03;10.33;;;;;;;;;;5095383;28;20422;-56
2020/12/03 02:48:52;;;;;;;12.40;9.73;;;;;;;;;;5076911;28;20448;-57
2020/12/03 02:51:18;;;;;;;13.30;10.47;;;;;;;;;;5086939;28;20434;-59
2020/12/03 02:53:44;;;;;;;13.20;10.53;;;;;;;;;;5074943;28;20432;-56
2020/12/03 02:56:13;;;;;;;14.03;9.63;;;;;;;;;;5073294;28;20559;-58
2020/12/03 02:58:39;;;;;;;12.83;10.27;;;;;;;;;;5078450;28;20434;-56
2020/12/03 03:01:05;;;;;;;12.70;10.40;;;;;;;;;;5080692;28;20453;-57
2020/12/03 03:03:31;;;;;;;12.53;10.40;;;;;;;;;;5089298;28;20477;-56
2020/12/03 03:05:57;;;;;;;12.17;10.33;;;;;;;;;;5073171;28;20426;-56
2020/12/03 03:08:23;;;;;;;13.57;10.60;;;;;;;;;;5078503;28;20464;-57
2020/12/03 03:10:49;;;;;;;13.43;10.00;;;;;;;;;;5076048;28;20191;-59
2020/12/03 03:13:15;;;;;;;13.23;10.83;;;;;;;;;;5081151;28;20434;-56
2020/12/03 03:15:42;;;;;;;13.03;10.60;;;;;;;;;;5071001;28;20910;-56
2020/12/03 03:18:08;;;;;;;12.47;10.63;;;;;;;;;;5073155;28;20626;-57
2020/12/03 03:20:34;;;;;;;17.10;11.73;;;;;;;;;;5080241;28;20426;-57
2020/12/03 03:23:00;;;;;;;13.53;10.63;;;;;;;;;;5080867;28;20487;-58
2020/12/03 03:25:27;;;;;;;12.27;10.20;;;;;;;;;;5077038;28;20443;-57
2020/12/03 03:27:53;;;;;;;11.73;10.13;;;;;;;;;;5075613;28;20462;-57
2020/12/03 03:30:19;;;;;;;14.23;11.20;;;;;;;;;;5090621;28;20436;-57
2020/12/03 03:32:45;;;;;;;15.03;12.30;;;;;;;;;;5102442;28;20176;-57
2020/12/03 03:35:11;;;;;;;13.77;10.90;;;;;;;;;;5098801;28;20595;-56
2020/12/03 03:37:37;;;;;;;12.67;11.27;;;;;;;;;;5090658;28;20442;-56
2020/12/03 03:40:04;;;;;;;14.30;11.23;;;;;;;;;;5076783;28;20192;-57
2020/12/03 03:42:30;;;;;;;11.93;9.80;;;;;;;;;;5081353;28;20180;-56
2020/12/03 03:44:56;;;;;;;12.60;10.63;;;;;;;;;;5076374;28;20427;-57
2020/12/03 03:47:22;;;;;;;13.57;10.93;;;;;;;;;;5072274;28;20414;-57
2020/12/03 03:49:48;;;;;;;13.17;10.63;;;;;;;;;;5075269;28;20419;-58
2020/12/03 03:52:15;;;;;;;13.57;11.13;;;;;;;;;;5078147;28;20599;-56
2020/12/03 03:54:41;;;;;;;15.03;10.30;;;;;;;;;;5084722;28;20184;-56
2020/12/03 03:57:07;;;;;;;12.77;10.90;;;;;;;;;;5078218;28;20930;-55
2020/12/03 03:59:33;;;;;;;14.23;11.33;;;;;;;;;;5075647;28;20435;-57
2020/12/03 04:01:59;;;;;;;13.80;11.13;;;;;;;;;;5077858;28;20893;-57
2020/12/03 04:04:25;;;;;;;11.83;10.03;;;;;;;;;;5078326;28;20235;-56
2020/12/03 04:06:51;;;;;;;12.23;10.60;;;;;;;;;;5080713;28;20905;-57
2020/12/03 04:09:17;;;;;;;13.53;11.07;;;;;;;;;;5076924;28;20571;-57
2020/12/03 04:11:44;;;;;;;12.43;10.33;;;;;;;;;;5079633;28;20282;-56
2020/12/03 04:14:10;;;;;;;14.00;11.83;;;;;;;;;;5076197;28;20283;-57
2020/12/03 04:16:36;;;;;;;14.20;11.07;;;;;;;;;;5088643;28;20401;-56
2020/12/03 04:19:02;;;;;;;14.00;9.97;;;;;;;;;;5075829;28;20479;-58
2020/12/03 04:21:28;;;;;;;14.07;10.53;;;;;;;;;;5086139;28;20218;-57
2020/12/03 04:23:54;;;;;;;12.80;11.40;;;;;;;;;;5078054;28;20454;-56
2020/12/03 04:26:20;;;;;;;14.90;10.73;;;;;;;;;;5076286;28;20430;-56
2020/12/03 04:28:46;;;;;;;14.70;11.20;;;;;;;;;;5077786;28;20180;-57
2020/12/03 04:31:13;;;;;;;12.80;11.03;;;;;;;;;;5084444;28;20726;-57
2020/12/03 04:33:39;;;;;;;11.83;9.90;;;;;;;;;;5088348;28;20933;-59
2020/12/03 04:36:05;;;;;;;11.83;10.03;;;;;;;;;;5088305;28;20418;-59
2020/12/03 04:38:31;;;;;;;13.07;10.13;;;;;;;;;;5075442;28;20438;-57
2020/12/03 04:40:59;;;;;;;12.57;10.23;;;;;;;;;;5075842;28;20427;-57
2020/12/03 04:43:27;;;;;;;13.40;11.23;;;;;;;;;;5077607;28;20489;-57
2020/12/03 04:45:58;;;;;;;11.50;9.97;;;;;;;;;;5087113;28;20457;-57
2020/12/03 04:48:35;;;;;;;11.83;10.27;;;;;;;;;;5071270;28;20398;-56
2020/12/03 04:51:19;;;;;;;11.43;9.23;;;;;;;;;;5088513;28;20828;-57
2020/12/03 04:53:51;;;;;;;13.40;10.23;;;;;;;;;;5077135;28;20804;-57
2020/12/03 04:56:28;;;;;;;12.37;9.57;;;;;;;;;;5075111;28;20429;-56
2020/12/03 04:59:11;;;;;;;11.87;9.53;;;;;;;;;;5078632;28;20437;-59
2020/12/03 05:01:58;;;;;;;11.87;9.90;;;;;;;;;;5083416;28;20544;-56
2020/12/03 05:04:37;;;;;;;12.03;9.60;;;;;;;;;;5083097;28;20938;-57
2020/12/03 05:07:05;;;;;;;11.23;9.50;;;;;;;;;;5081029;28;20491;-57
2020/12/03 05:09:39;;;;;;;12.23;10.33;;;;;;;;;;5074159;28;20431;-57
2020/12/03 05:12:13;;;;;;;11.97;9.50;;;;;;;;;;5073287;28;20985;-56
2020/12/03 05:14:39;;;;;;;12.27;9.77;;;;;;;;;;5074613;28;20442;-56
2020/12/03 05:17:14;;;;;;;11.70;9.80;;;;;;;;;;5099642;28;20432;-57
2020/12/03 05:19:43;;;;;;;11.87;9.23;;;;;;;;;;5089334;28;20495;-57
2020/12/03 05:22:35;;;;;;;11.10;8.93;;;;;;;;;;5083662;28;20434;-56
2020/12/03 05:25:01;;;;;;;11.07;9.50;;;;;;;;;;5072762;28;20446;-56
2020/12/03 05:27:29;;;;;;;10.90;8.80;;;;;;;;;;5077644;28;20564;-56
2020/12/03 05:29:56;;;;;;;12.40;9.70;;;;;;;;;;5082056;28;20647;-58
2020/12/03 05:32:25;;;;;;;10.67;9.13;;;;;;;;;;5082040;28;20504;-56
2020/12/03 05:34:52;;;;;;;12.90;9.57;;;;;;;;;;5081075;28;20425;-56
2020/12/03 05:37:18;;;;;;;12.13;9.13;;;;;;;;;;5079956;28;20935;-56
2020/12/03 05:39:48;;;;;;;11.67;9.13;;;;;;;;;;5075679;28;20497;-57
2020/12/03 05:42:16;;;;;;;10.80;9.00;;;;;;;;;;5074066;28;20438;-58
2020/12/03 05:44:50;;;;;;;11.17;9.23;;;;;;;;;;5088021;28;20911;-56
2020/12/03 05:47:16;;;;;;;13.43;9.50;;;;;;;;;;5084217;28;20959;-57
2020/12/03 05:49:42;;;;;;;11.33;9.30;;;;;;;;;;5088257;28;20187;-57
2020/12/03 05:52:19;;;;;;;10.43;8.37;;;;;;;;;;5080975;28;20536;-56
2020/12/03 05:55:00;;;;;;;9.40;8.43;;;;;;;;;;5074712;28;20183;-57
2020/12/03 05:57:28;;;;;;;12.00;9.47;;;;;;;;;;5082147;28;20758;-57
2020/12/03 06:00:07;;;;;;;9.60;8.20;;;;;;;;;;5081961;28;20794;-57
2020/12/03 06:02:51;;;;;;;10.93;8.73;;;;;;;;;;5076703;28;20440;-56
2020/12/03 06:05:22;;;;;;;11.37;7.57;;;;;;;;;;5083992;28;20489;-56
2020/12/03 06:07:51;;;;;;;11.67;8.90;;;;;;;;;;5082518;28;20477;-57
2020/12/03 06:10:21;;;;;;;9.63;8.13;;;;;;;;;;5075547;28;20285;-57
2020/12/03 06:12:50;;;;;;;13.20;9.50;;;;;;;;;;5078407;28;20438;-56
2020/12/03 06:15:25;;;;;;;13.77;9.50;;;;;;;;;;5082997;28;20414;-57
2020/12/03 06:17:58;;;;;;;11.23;8.73;;;;;;;;;;5089776;28;20413;-57
2020/12/03 06:20:39;;;;;;;11.13;8.80;;;;;;;;;;5090750;28;20406;-57
2020/12/03 06:23:19;;;;;;;11.37;8.40;;;;;;;;;;5077790;28;20195;-56
2020/12/03 06:26:20;;;;;;;10.03;7.93;;;;;;;;;;5075338;28;20457;-56
2020/12/03 06:29:05;;;;;;;9.93;7.80;;;;;;;;;;5016169;28;20955;-57
2020/12/03 06:31:49;;;;;;;10.70;8.10;;;;;;;;;;5081570;28;20224;-57
2020/12/03 06:34:20;;;;;;;10.77;8.83;;;;;;;;;;5088698;28;20866;-58
2020/12/03 06:36:49;;;;;;;10.70;7.80;;;;;;;;;;5077075;28;20916;-57
2020/12/03 06:39:25;;;;;;;13.17;8.77;;;;;;;;;;5084243;28;20812;-57
2020/12/03 06:41:58;;;;;;;11.00;8.20;;;;;;;;;;5081110;28;20452;-57
2020/12/03 06:44:37;;;;;;;9.70;7.47;;;;;;;;;;5084970;28;20465;-56
2020/12/03 06:47:09;;;;;;;10.30;7.93;;;;;;;;;;5078459;28;20418;-56
2020/12/03 06:49:54;;;;;;;9.83;7.97;;;;;;;;;;5074885;28;20544;-57
2020/12/03 06:52:36;;;;;;;9.53;7.93;;;;;;;;;;5078784;28;21323;-58
2020/12/03 06:55:20;;;;;;;9.20;7.73;;;;;;;;;;5081824;28;20465;-56
2020/12/03 06:57:46;;;;;;;8.03;6.63;;;;;;;;;;5090618;28;20441;-57
2020/12/03 07:00:31;;;;;;;11.20;8.47;;;;;;;;;;5085381;28;20462;-56
2020/12/03 07:02:57;;;;;;;9.70;7.47;;;;;;;;;;5075286;28;20188;-57
2020/12/03 07:05:36;;;;;;;9.57;7.30;;;;;;;;;;5073328;28;20911;-56
2020/12/03 07:08:02;;;;;;;10.40;7.07;;;;;;;;;;5074593;28;20188;-57
2020/12/03 07:10:40;;;;;;;8.47;7.53;;;;;;;;;;5079078;28;20421;-56
2020/12/03 07:13:21;;;;;;;10.47;7.27;;;;;;;;;;5075295;28;20438;-59
2020/12/03 07:16:05;;;;;;;10.27;7.90;;;;;;;;;;5083393;28;20772;-56
2020/12/03 07:18:41;;;;;;;8.90;7.23;;;;;;;;;;5081562;28;20493;-56
2020/12/03 07:21:25;;;;;;;9.40;7.43;;;;;;;;;;5083763;28;20429;-56
2020/12/03 07:24:03;;;;;;;10.07;7.57;;;;;;;;;;5077069;28;20454;-59
2020/12/03 07:26:48;;;;;;;9.60;7.60;;;;;;;;;;5080785;28;20426;-56
2020/12/03 07:29:41;;;;;;;8.70;7.17;;;;;;;;;;5080742;28;20434;-57
2020/12/03 07:32:17;;;;;;;8.47;6.70;;;;;;;;;;5057908;28;20442;-56
2020/12/03 07:34:46;;;;;;;9.93;7.10;;;;;;;;;;5078666;28;20410;-56
2020/12/03 07:37:24;;;;;;;10.47;7.23;;;;;;;;;;5085357;28;20542;-57
2020/12/03 07:39:51;;;;;;;9.63;7.43;;;;;;;;;;5078348;28;20920;-57
2020/12/03 07:42:19;;;;;;;9.53;6.70;;;;;;;;;;5082290;28;20460;-57
2020/12/03 07:44:53;;;;;;;9.73;6.87;;;;;;;;;;5091130;28;20555;-57
2020/12/03 07:47:35;;;;;;;9.07;7.53;;;;;;;;;;5072239;28;20434;-56
2020/12/03 07:50:01;;;;;;;10.47;7.37;;;;;;;;;;5080872;28;20430;-57
2020/12/03 07:52:29;;;;;;;9.07;6.93;;;;;;;;;;5076944;28;20422;-57
2020/12/03 07:55:15;;;;;;;9.30;7.43;;;;;;;;;;5081526;28;20426;-56
2020/12/03 07:57:41;;;;;;;9.23;7.00;;;;;;;;;;5076926;28;20478;-56
2020/12/03 08:00:27;;;;;;;9.83;7.20;;;;;;;;;;5086250;28;20466;-56
2020/12/03 08:02:53;;;;;;;8.80;6.80;;;;;;;;;;5076231;28;20940;-56
2020/12/03 08:05:34;;;;;;;9.17;7.50;;;;;;;;;;5091079;28;20433;-59
2020/12/03 08:08:01;;;;;;;10.37;7.57;;;;;;;;;;5074172;28;20633;-58
2020/12/03 08:10:40;;;;;;;8.90;7.23;;;;;;;;;;5075556;28;20440;-57
2020/12/03 08:13:07;;;;;;;9.53;7.43;;;;;;;;;;5077010;28;20429;-59
2020/12/03 08:15:34;;;;;;;9.83;7.77;;;;;;;;;;5087775;28;20914;-56
2020/12/03 08:18:00;;;;;;;10.00;7.77;;;;;;;;;;5077804;28;20751;-56
2020/12/03 08:20:42;;;;;;;11.17;7.43;;;;;;;;;;5094014;28;20413;-56
2020/12/03 08:23:11;;;;;;;8.80;6.73;;;;;;;;;;5077933;28;20755;-58
2020/12/03 08:25:42;;;;;;;10.73;7.70;;;;;;;;;;5080761;28;20469;-58
2020/12/03 08:28:16;;;;;;;9.47;7.13;;;;;;;;;;5074014;28;20434;-56
2020/12/03 08:30:47;;;;;;;9.37;7.47;;;;;;;;;;5077588;28;20449;-56
2020/12/03 08:33:15;;;;;;;9.97;7.73;;;;;;;;;;5081675;28;20422;-57
2020/12/03 08:35:49;;;;;;;9.20;7.47;;;;;;;;;;5082553;28;20505;-56
2020/12/03 08:38:15;;;;;;;8.67;7.33;;;;;;;;;;5072777;28;20426;-57
2020/12/03 08:40:41;;;;;;;9.70;6.97;;;;;;;;;;5075542;28;20429;-56
2020/12/03 08:43:11;;;;;;;9.73;7.17;;;;;;;;;;5076554;28;20497;-57
2020/12/03 08:45:48;;;;;;;10.37;7.87;;;;;;;;;;5088830;28;20417;-56
2020/12/03 08:48:16;;;;;;;11.33;7.43;;;;;;;;;;5070918;28;20410;-55
2020/12/03 08:50:42;;;;;;;8.50;6.90;;;;;;;;;;5072915;28;20463;-58
2020/12/03 08:53:09;;;;;;;8.57;6.80;;;;;;;;;;5075701;28;20465;-57
2020/12/03 08:55:37;;;;;;;8.80;7.07;;;;;;;;;;5078960;28;20492;-57
2020/12/03 08:58:04;;;;;;;8.47;6.67;;;;;;;;;;5075716;28;21427;-56
2020/12/03 09:00:33;;;;;;;10.57;7.50;;;;;;;;;;5081218;28;20801;-56
2020/12/03 09:02:59;;;;;;;9.63;7.00;;;;;;;;;;5094922;28;20485;-56
2020/12/03 09:05:26;;;;;;;9.27;7.00;;;;;;;;;;5098263;28;20814;-56
2020/12/03 09:07:52;;;;;;;9.47;6.97;;;;;;;;;;5077329;28;20421;-57
2020/12/03 09:10:20;;;;;;;10.00;7.57;;;;;;;;;;5074901;28;20233;-57
2020/12/03 09:12:47;;;;;;;10.10;7.43;;;;;;;;;;5077173;28;20459;-58
2020/12/03 09:15:13;;;;;;;9.80;7.00;;;;;;;;;;5074114;28;20510;-57
2020/12/03 09:17:40;;;;;;;8.37;6.77;;;;;;;;;;5084034;28;20449;-57
2020/12/03 09:20:07;;;;;;;9.40;7.00;;;;;;;;;;5075144;28;20766;-57
2020/12/03 09:22:34;;;;;;;10.33;7.63;;;;;;;;;;5077029;28;20425;-57
2020/12/03 09:25:00;;;;;;;9.90;7.20;;;;;;;;;;5076024;28;20476;-57
2020/12/03 09:27:27;;;;;;;9.33;7.40;;;;;;;;;;5080541;28;20577;-59
2020/12/03 09:29:53;;;;;;;10.90;7.70;;;;;;;;;;5075602;28;20435;-57
2020/12/03 09:32:21;;;;;;;8.77;7.57;;;;;;;;;;5090990;28;20438;-57
2020/12/03 09:34:50;;;;;;;8.87;7.17;;;;;;;;;;5087695;28;20414;-57
2020/12/03 09:37:16;;;;;;;9.73;7.70;;;;;;;;;;5076987;28;20441;-58
2020/12/03 09:39:42;;;;;;;9.93;7.63;;;;;;;;;;5073794;28;20430;-57
2020/12/03 09:42:15;;;;;;;9.73;6.97;;;;;;;;;;5074973;28;20437;-59
2020/12/03 09:44:43;;;;;;;9.07;7.10;;;;;;;;;;5074391;28;20451;-56
2020/12/03 09:47:11;;;;;;;9.73;7.83;;;;;;;;;;5085480;28;20531;-57
2020/12/03 09:49:41;;;;;;;7.93;7.10;;;;;;;;;;5085718;28;20424;-56
2020/12/03 09:52:10;;;;;;;9.13;7.57;;;;;;;;;;5082492;28;20440;-56
2020/12/03 09:54:36;;;;;;;9.50;6.73;;;;;;;;;;5081341;28;20429;-56
2020/12/03 09:57:02;;;;;;;8.40;6.83;;;;;;;;;;5077671;28;20442;-56
2020/12/03 09:59:28;;;;;;;10.43;7.10;;;;;;;;;;5075347;28;20473;-57
2020/12/03 10:02:04;;;;;;;11.30;7.80;;;;;;;;;;5080300;28;20469;-57
2020/12/03 10:04:43;;;;;;;9.73;6.70;;;;;;;;;;5082162;28;20466;-57
2020/12/03 10:07:15;;;;;;;9.17;7.37;;;;;;;;;;5085485;28;20806;-57
2020/12/03 10:10:01;;;;;;;8.83;7.33;;;;;;;;;;5075101;28;22317;-57
2020/12/03 10:12:39;;;;;;;9.63;7.20;;;;;;;;;;5081866;27;20511;-59
2020/12/03 10:15:16;;;;;;;8.17;7.07;;;;;;;;;;5081053;28;20426;-57
2020/12/03 10:17:44;;;;;;;11.40;6.97;;;;;;;;;;5094923;28;20466;-56
2020/12/03 10:20:10;;;;;;;9.60;7.37;;;;;;;;;;5104385;28;20843;-56
2020/12/03 10:23:03;;;;;;;8.67;7.03;;;;;;;;;;5083116;28;20780;-57
2020/12/03 10:25:30;;;;;;;8.60;6.70;;;;;;;;;;5052841;28;20438;-60
2020/12/03 10:28:15;;;;;;;7.40;6.37;;;;;;;;;;5083660;28;20947;-57
2020/12/03 10:30:42;;;;;;;10.77;7.47;;;;;;;;;;5090208;28;20448;-56
2020/12/03 10:33:12;;;;;;;9.43;7.27;;;;;;;;;;5093280;28;20945;-58
2020/12/03 10:35:46;;;;;;;9.60;7.30;;;;;;;;;;5092870;28;21311;-59
2020/12/03 10:38:24;;;;;;;9.83;7.37;;;;;;;;;;5077816;28;20460;-57
2020/12/03 10:40:54;;;;;;;8.67;6.93;;;;;;;;;;5078792;28;20497;-60
2020/12/03 10:43:25;;;;;;;9.53;7.47;;;;;;;;;;5076758;28;20546;-56
2020/12/03 10:45:55;;;;;;;9.30;6.93;;;;;;;;;;5089780;28;20508;-57
2020/12/03 10:48:23;;;;;;;8.50;7.20;;;;;;;;;;5114612;28;20487;-56
2020/12/03 10:50:54;;;;;;;10.23;7.63;;;;;;;;;;5088874;28;20417;-57
2020/12/03 10:53:24;;;;;;;10.10;7.67;;;;;;;;;;5080093;28;20437;-57
2020/12/03 10:55:59;;;;;;;8.83;7.30;;;;;;;;;;5079367;28;20428;-59
2020/12/03 10:58:29;;;;;;;9.40;7.37;;;;;;;;;;5083865;28;20911;-56
2020/12/03 11:00:55;;;;;;;8.03;6.53;;;;;;;;;;5077107;28;20509;-56
2020/12/03 11:03:27;;;;;;;7.73;6.40;;;;;;;;;;5079515;28;20462;-57
2020/12/03 11:05:53;;;;;;;10.00;7.73;;;;;;;;;;5087265;28;20464;-57
2020/12/03 11:08:19;;;;;;;10.00;7.53;;;;;;;;;;5077808;28;20505;-56
2020/12/03 11:10:46;;;;;;;9.60;7.37;;;;;;;;;;5075200;28;20434;-56
2020/12/03 11:13:19;;;;;;;9.50;7.63;;;;;;;;;;5079503;28;20461;-56
2020/12/03 11:15:45;;;;;;;9.43;6.20;;;;;;;;;;5078425;28;20468;-56
2020/12/03 11:18:12;;;;;;;9.57;6.93;;;;;;;;;;5090410;28;20524;-56
2020/12/03 11:20:39;;;;;;;10.13;7.43;;;;;;;;;;5090947;28;20429;-56
2020/12/03 11:23:06;;;;;;;9.87;7.83;;;;;;;;;;5079721;28;20465;-59
2020/12/03 11:25:32;;;;;;;11.07;8.27;;;;;;;;;;5086502;28;20421;-58
2020/12/03 11:28:05;;;;;;;9.80;7.67;;;;;;;;;;5084624;28;20422;-59
2020/12/03 11:30:31;;;;;;;10.63;8.23;;;;;;;;;;5085761;28;20449;-56
2020/12/03 11:32:58;;;;;;;10.60;8.13;;;;;;;;;;5077894;28;20908;-56
2020/12/03 11:35:31;;;;;;;12.13;8.30;;;;;;;;;;5095277;28;20427;-59
2020/12/03 11:37:58;;;;;;;9.67;7.13;;;;;;;;;;5077637;28;20457;-57
2020/12/03 11:40:27;;;;;;;9.57;7.67;;;;;;;;;;5085549;28;20771;-57
2020/12/03 11:43:10;;;;;;;9.80;8.00;;;;;;;;;;5089866;28;20414;-58
2020/12/03 11:50:53;;;;;;;10.37;7.90;;;;;;;;;;5073687;28;20418;-57
2020/12/03 11:53:20;;;;;;;9.13;8.00;;;;;;;;;;5091860;28;20437;-58
2020/12/03 11:55:46;;;;;;;12.23;7.77;;;;;;;;;;5091949;28;20430;-56
2020/12/03 11:58:12;;;;;;;9.13;7.80;;;;;;;;;;5085761;28;20440;-56
2020/12/03 12:00:38;;;;;;;10.20;7.73;;;;;;;;;;5087622;28;20553;-58
2020/12/03 12:03:08;;;;;;;10.37;7.53;;;;;;;;;;5078677;28;20827;-59
2020/12/03 12:10:44;;;;;;;10.37;8.00;;;;;;;;;;5087890;28;20484;-58
2020/12/03 12:13:10;;;;;;;9.80;7.73;;;;;;;;;;5079178;28;20488;-59
2020/12/03 12:15:36;;;;;;;11.67;8.07;;;;;;;;;;5082412;28;20422;-58
2020/12/03 12:18:02;;;;;;;11.90;8.00;;;;;;;;;;5074063;28;20484;-58
2020/12/03 12:20:28;;;;;;;10.50;7.87;;;;;;;;;;5079067;28;20175;-59
2020/12/03 12:22:54;;;;;;;10.20;7.90;;;;;;;;;;5104404;28;20520;-58
2020/12/03 12:25:20;;;;;;;13.40;7.70;;;;;;;;;;5092220;28;20448;-58
2020/12/03 12:27:47;;;;;;;9.13;7.70;;;;;;;;;;5082136;28;20437;-58
2020/12/03 12:30:14;;;;;;;10.47;7.43;;;;;;;;;;5089509;28;20429;-58
2020/12/03 12:32:40;;;;;;;10.13;7.93;;;;;;;;;;5082555;28;20434;-61
2020/12/03 12:35:06;;;;;;;10.23;7.90;;;;;;;;;;5071138;28;20480;-61
2020/12/03 12:37:32;;;;;;;9.53;7.50;;;;;;;;;;5073494;28;20559;-59
2020/12/03 12:39:58;;;;;;;10.17;7.87;;;;;;;;;;5091999;28;20891;-59
2020/12/03 12:42:27;;;;;;;9.87;7.27;;;;;;;;;;5091255;28;20864;-59
2020/12/03 12:44:54;;;;;;;7.93;6.97;;;;;;;;;;5091803;28;20488;-57
2020/12/03 12:47:21;;;;;;;9.47;7.73;;;;;;;;;;5086712;28;20513;-58
2020/12/03 12:49:48;;;;;;;8.90;7.60;;;;;;;;;;5078861;28;20509;-58
2020/12/03 12:52:14;;;;;;;7.93;6.37;;;;;;;;;;5072007;28;20437;-57
2020/12/03 12:54:40;;;;;;;8.77;7.07;;;;;;;;;;5095115;28;20430;-58
2020/12/03 12:57:06;;;;;;;9.90;7.37;;;;;;;;;;5081125;28;20558;-57
2020/12/03 12:59:32;;;;;;;9.07;7.23;;;;;;;;;;5087586;28;20431;-57
2020/12/03 13:01:58;;;;;;;9.33;6.93;;;;;;;;;;5082059;28;20481;-57
2020/12/03 13:04:25;;;;;;;7.60;6.33;;;;;;;;;;5076158;28;20450;-57
2020/12/03 13:06:56;;;;;;;9.47;6.73;;;;;;;;;;5079357;28;20450;-58
2020/12/03 13:09:22;;;;;;;7.83;6.50;;;;;;;;;;5072861;28;20520;-59
2020/12/03 13:11:50;;;;;;;8.20;6.10;;;;;;;;;;5075761;28;20796;-56
2020/12/03 13:14:16;;;;;;;8.70;6.57;;;;;;;;;;5075830;28;20435;-57
2020/12/03 13:16:42;;;;;;;7.63;6.73;;;;;;;;;;5077351;28;20555;-57
2020/12/03 13:19:08;;;;;;;7.80;6.50;;;;;;;;;;5091648;28;20970;-57
2020/12/03 13:21:35;;;;;;;9.77;6.30;;;;;;;;;;5099978;28;20429;-57
2020/12/03 13:24:02;;;;;;;8.70;6.57;;;;;;;;;;5088565;28;20453;-57
2020/12/03 13:26:28;;;;;;;8.17;6.37;;;;;;;;;;5095530;28;20191;-57
2020/12/03 13:28:55;;;;;;;8.57;6.73;;;;;;;;;;5087592;28;20429;-57
2020/12/03 13:31:21;;;;;;;7.70;6.00;;;;;;;;;;5082276;28;20453;-57
2020/12/03 13:33:47;;;;;;;8.87;5.93;;;;;;;;;;5091150;28;20413;-57
2020/12/03 13:36:13;;;;;;;9.47;6.77;;;;;;;;;;5077167;28;20424;-58
2020/12/03 13:38:39;;;;;;;8.07;6.63;;;;;;;;;;5088575;28;20433;-57
2020/12/03 13:41:05;;;;;;;7.10;6.27;;;;;;;;;;5082757;28;20465;-59
2020/12/03 13:43:32;;;;;;;7.80;6.30;;;;;;;;;;5101759;28;20455;-58
2020/12/03 13:45:58;;;;;;;8.33;6.33;;;;;;;;;;5094907;28;20938;-58
2020/12/03 13:48:25;;;;;;;9.00;6.90;;;;;;;;;;5081386;28;20201;-57
2020/12/03 13:50:51;;;;;;;7.03;5.70;;;;;;;;;;5092145;28;20431;-57
2020/12/03 13:53:17;;;;;;;8.13;5.87;;;;;;;;;;5076991;28;20461;-58
2020/12/03 13:55:43;;;;;;;8.00;6.23;;;;;;;;;;5104902;28;20469;-57
2020/12/03 13:58:09;;;;;;;8.83;6.80;;;;;;;;;;5085069;28;20767;-58
2020/12/03 14:00:36;;;;;;;7.23;6.30;;;;;;;;;;5090648;28;20219;-57
2020/12/03 14:03:02;;;;;;;8.17;6.23;;;;;;;;;;5093035;28;20463;-57
2020/12/03 14:05:28;;;;;;;9.57;7.27;;;;;;;;;;5077386;28;20414;-57
2020/12/03 14:07:54;;;;;;;6.80;5.90;;;;;;;;;;5087007;28;20417;-57
2020/12/03 14:10:20;;;;;;;6.77;6.07;;;;;;;;;;5095165;28;20410;-57
2020/12/03 14:12:46;;;;;;;6.73;6.00;;;;;;;;;;5086993;28;20440;-58
2020/12/03 14:15:12;;;;;;;7.60;5.93;;;;;;;;;;5105160;28;20408;-57
2020/12/03 14:17:38;;;;;;;7.63;6.03;;;;;;;;;;5105113;28;20504;-58
2020/12/03 14:20:05;;;;;;;7.90;6.50;;;;;;;;;;5109840;28;20483;-57
2020/12/03 14:22:31;;;;;;;7.10;5.73;;;;;;;;;;5081389;28;20426;-59
2020/12/03 14:24:58;;;;;;;6.83;5.83;;;;;;;;;;5072267;28;21051;-58
2020/12/03 14:27:24;;;;;;;7.70;5.90;;;;;;;;;;5080098;28;20172;-60
2020/12/03 14:29:50;;;;;;;6.63;5.13;;;;;;;;;;5099410;28;20414;-57
2020/12/03 14:32:16;;;;;;;6.93;5.13;;;;;;;;;;5092612;28;20231;-60
2020/12/03 14:34:43;;;;;;;6.77;5.47;;;;;;;;;;5093979;28;20405;-57
2020/12/03 14:37:09;;;;;;;6.43;5.83;;;;;;;;;;5090865;28;20427;-57
2020/12/03 14:39:35;;;;;;;7.50;5.43;;;;;;;;;;5086146;28;20942;-57
2020/12/03 14:42:01;;;;;;;8.73;6.80;;;;;;;;;;5076457;28;20454;-59
2020/12/03 14:44:27;;;;;;;7.23;5.50;;;;;;;;;;5086833;28;20206;-57
2020/12/03 14:46:55;;;;;;;7.87;5.90;;;;;;;;;;5101696;28;20470;-57
2020/12/03 14:49:21;;;;;;;6.60;5.60;;;;;;;;;;5108561;28;20951;-57
2020/12/03 14:51:56;;;;;;;8.20;5.97;;;;;;;;;;5081613;28;20900;-58
2020/12/03 14:54:27;;;;;;;6.63;5.43;;;;;;;;;;5076706;28;20422;-57